Pagina principale
METAR-TAF:

METAR-TAF

Aeroporti :

Kars, Turchia

latitudine: 40-36N, longitudine: 043-05E, altezza: 1775 m

Osservazione

Il bollettino è stato emesso 40 minuti fa, alle 03:50 UTC
Vento 4 kt da ovest, variando fra sud-ovest e ovest/nord-ovest
Temperature 0°C
Umidità 100%
Pressione 1004 hPa
Visibilità 10 km o più
Nuvoloso ad un'altezza di 3000 ft
Nuvoloso ad un'altezza di 7000 ft

METAR: LTCF 300350Z 26004KT 230V290 9999 BKN030 BKN070 00/00 Q1004

Ora: 07:30 (04:30 UTC)

Previsione

Il bollettino è stato emesso 2 ore e 50 minuti fa, alle 01:40 UTC
Previsione valida dal 30 alle 03 UTC al 30 alle 12 UTC
Vento 2 kt da direzioni variabili
Visibilità: 4000 m
Nuvoloso ad un'altezza di 3000 ft
Nuvoloso ad un'altezza di 7000 ft
foschia
Evoluzione graduale
dal 30 alle 03 UTC al 30 alle 07 UTC
Visibilità: 8000 m

TAF: LTCF 300140Z 3003/3012 VRB02KT 4000 BR BKN030 BKN070 BECMG 3003/3007 8000

Osservazioni e previsioni meteorologiche di più di 4000 aeroporti (messaggi METAR e TAF).

Le stazioni disponibili sono rappresentate dai dischi gialli e rossi sulla carta.

Puntare il mouse per vedere il nome della stazione.

Clicca sopra per visualizzare le osservazioni e previsioni meteorologiche.

Per cambiare la mappa : fare clic sui pulsanti verdi con una croce nera per ingrandire, il pulsante verde con un trattino per diminuire, o sulla freccia verde per le mappe adiacenti.


METAR-TAF: